Terminal Aerodrome Forecast
Issued by NWS

Home | Current Version | Previous Version | Graphics & Text | Print | Product List | Glossary On
Versions: 1 2 3 4 5 6 7 8 9 10 11 12 13 14 15 16 17 18 19
965
FTUS43 KIWX 232320
TAFSBN
TAF
KSBN 232320Z 2400/2424 05006KT P6SM VCSH BKN100
     FM240900 05006KT P6SM VCSH BKN050
     FM241500 05008KT 5SM SHRA BR OVC025=

USA.gov is the U.S. government's official web portal to all federal, state and local government web resources and services.